Flight Track Log - Related Links

Times and Time Zones

All times are in EDT time to prevent confusion due to time zone crossing. See the UAL1208 flight status page for this flight to view local times or setup timezone preferences in your user account.

Time Position Orientation Groundspeed Altitude Reporting Facility
EDT Latitude Longitude Course Direction KTS MPH feet Rate Location/Type
Sun 05:39:45 PM 29.9572 -95.3417 279° West 174 200 700  Level Houston Center
Sun 05:40:35 PM 29.9197 -95.3656 209° Southwest 231 266 2,100 1,624 Climbing Houston Center
Sun 05:41:10 PM 29.9011 -95.3942 233° Southwest 251 289 3,000 2,165 Climbing Houston Center
Sun 05:42:00 PM 30.0276 -95.7364 276° West  Level FlightAware Approximate
Sun 05:42:12 PM 29.8903 -95.4831 262° West 284 327 5,600  Level Houston Center
Sun 05:43:00 PM 30.0394 -95.8719 276° West  Level FlightAware Approximate
Sun 05:43:14 PM 29.9106 -95.5942 282° West 301 346 9,200  Level Houston Center
Sun 05:44:00 PM 30.0523 -96.0070 291° West  Level FlightAware Approximate
Sun 05:44:16 PM 29.9425 -95.6881 291° West 310 357 11,200  Level Houston Center
Sun 05:45:00 PM 30.0794 -96.1389 279° West  Level FlightAware Approximate
Sun 05:45:18 PM 29.9786 -95.7936 292° West 351 404 13,600  Level Houston Center
Sun 05:46:19 PM 30.0169 -95.9042 292° West 368 423 16,000 1,854 Climbing Houston Center
Sun 05:47:21 PM 30.0583 -96.0267 291° West 393 452 17,400 1,548 Climbing Houston Center
Sun 05:48:23 PM 30.0867 -96.1586 284° West 422 486 19,200 1,742 Climbing Houston Center
Sun 05:49:25 PM 30.1069 -96.2964 280° West 435 501 21,000 1,790 Climbing Houston Center
Sun 05:50:27 PM 30.1303 -96.4531 280° West 447 514 22,900 1,694 Climbing Houston Center
Sun 05:51:29 PM 30.1525 -96.5997 280° West 456 525 24,500 1,463 Climbing Houston Center
Sun 05:52:30 PM 30.1744 -96.7503 280° West 466 536 25,900 1,317 Climbing Houston Center
Sun 05:53:32 PM 30.2056 -96.9008 283° West 474 545 27,200 1,210 Climbing Houston Center
Sun 05:54:34 PM 30.2381 -97.0525 284° West 478 550 28,400 1,403 Climbing Houston Center
Sun 05:55:36 PM 30.2692 -97.2067 283° West 483 556 30,100 1,645 Climbing Houston Center
Sun 05:56:38 PM 30.3056 -97.3794 284° West 470 541 31,800 1,355 Climbing Houston Center
Sun 05:57:40 PM 30.3367 -97.5269 284° West 467 537 32,900 1,065 Climbing Houston Center
Sun 05:58:42 PM 30.3661 -97.6756 283° West 467 537 34,000 1,065 Climbing Houston Center
Sun 05:59:44 PM 30.3964 -97.8236 283° West 467 537 35,100 1,161 Climbing Houston Center
Sun 06:00:46 PM 30.4261 -97.9678 283° West 458 527 36,400 1,024 Climbing Houston Center
Sun 06:01:47 PM 30.4806 -98.1014 295° West 454 522 37,200 732 Climbing Houston Center
Sun 06:02:49 PM 30.5389 -98.2336 297° West 454 522 37,900 387 Climbing Houston Center
Sun 06:03:51 PM 30.5956 -98.3661 296° West 454 522 38,000 48 Climbing Houston Center
Sun 06:04:53 PM 30.6536 -98.4994 297° West 456 525 38,000  Level Houston Center
Sun 06:05:55 PM 30.7106 -98.6314 297° West 454 522 38,000  Level Houston Center
Sun 06:06:57 PM 30.7744 -98.7861 296° West 451 519 38,000  Level Houston Center
Sun 06:07:59 PM 30.8314 -98.9189 297° West 455 524 38,000  Level Houston Center
Sun 06:09:01 PM 30.8869 -99.0533 296° West 455 524 38,000  Level Houston Center
Sun 06:10:03 PM 30.9464 -99.1914 297° West 460 529 38,000  Level Houston Center
Sun 06:11:04 PM 31.0019 -99.3244 296° West 461 531 38,000  Level Houston Center
Sun 06:12:06 PM 31.0581 -99.4597 296° West 464 534 38,000 -48 Level Houston Center
Sun 06:13:08 PM 31.1139 -99.5922 296° West 457 526 37,900 -48 Descending Houston Center
Sun 06:14:10 PM 31.1692 -99.7261 296° West 462 532 37,900 48 Level Houston Center
Sun 06:15:12 PM 31.2367 -99.8919 295° West 471 542 38,000  Climbing Houston Center
Sun 06:16:14 PM 31.2942 -100.0278 296° West 468 539 37,900  Descending Houston Center
Sun 06:17:16 PM 31.3503 -100.1669 295° West 477 549 38,000 48 Climbing Houston Center
Sun 06:18:18 PM 31.4056 -100.3014 296° West 464 534 38,000 -48 Level Houston Center
Sun 06:19:20 PM 31.4625 -100.4397 296° West 473 544 37,900  Descending Houston Center
Sun 06:20:21 PM 31.5294 -100.6058 295° West 470 541 38,000 49 Climbing Houston Center
Sun 06:21:23 PM 31.5839 -100.7419 295° West 467 537 38,000  Level Houston Center
Sun 06:22:25 PM 31.6358 -100.8697 296° West 475 547 38,000  Level Houston Center
Sun 06:23:27 PM 31.7011 -101.0347 295° West 469 540 38,000  Level Houston Center
Sun 06:24:29 PM 31.7561 -101.1728 295° West 466 536 38,000  Level Houston Center
Sun 06:25:41 PM 31.8239 -101.3447 295° West 467 537 38,000 -45 Level Fort Worth Center
Sun 06:26:41 PM 31.8781 -101.4842 295° West 473 544 37,900  Descending Fort Worth Center
Sun 06:27:41 PM 31.9317 -101.6261 294° West 467 537 38,000 50 Climbing Fort Worth Center
Sun 06:28:41 PM 31.9894 -101.7683 296° West 477 549 38,000  Level Fort Worth Center
Sun 06:29:41 PM 32.0450 -101.9106 295° West 477 549 38,000  Level Fort Worth Center
Sun 06:30:41 PM 32.0983 -102.0531 294° West 477 549 38,000  Level Fort Worth Center
Sun 06:31:41 PM 32.1417 -102.1778 292° West 477 549 38,000  Level Fort Worth Center
Sun 06:32:41 PM 32.1967 -102.3206 295° West 467 537 38,000  Level Fort Worth Center
Sun 06:33:41 PM 32.2517 -102.4636 294° West 467 537 38,000  Level Fort Worth Center
Sun 06:34:41 PM 32.3064 -102.6067 294° West 467 537 38,000  Level Fort Worth Center
Sun 06:35:41 PM 32.3608 -102.7475 295° West 467 537 38,000  Level Fort Worth Center
Sun 06:36:41 PM 32.4133 -102.8883 294° West 467 537 38,000  Level Fort Worth Center
Sun 06:37:41 PM 32.4658 -103.0219 295° West 467 537 38,000  Level Fort Worth Center
Sun 06:38:41 PM 32.5181 -103.1608 294° West 467 537 38,000  Level Fort Worth Center
Sun 06:39:41 PM 32.5722 -103.2972 295° West 467 537 38,000  Level Fort Worth Center
Sun 06:40:24 PM 32.6111 -103.4086 293° West 458 527 38,000  Level Albuquerque Center
Sun 06:41:25 PM 32.6617 -103.5467 294° West 458 527 38,000  Level Albuquerque Center
Sun 06:42:27 PM 32.7133 -103.6850 294° West 458 527 38,000  Level Albuquerque Center
Sun 06:43:28 PM 32.7650 -103.8269 293° West 456 525 38,000  Level Albuquerque Center
Sun 06:44:30 PM 32.8211 -103.9750 294° West 457 526 38,000  Level Albuquerque Center
Sun 06:45:31 PM 32.8947 -104.0950 306° West 450 518 38,000  Level Albuquerque Center
Sun 06:46:33 PM 32.9725 -104.2128 308° West 452 520 38,000  Level Albuquerque Center
Sun 06:47:34 PM 33.0564 -104.3389 308° West 452 520 38,000  Level Albuquerque Center
Sun 06:48:35 PM 33.1339 -104.4553 309° West 449 517 38,000 -49 Level Albuquerque Center
Sun 06:49:37 PM 33.2147 -104.5719 310° West 466 536 37,900  Descending Albuquerque Center
Sun 06:50:38 PM 33.2919 -104.6992 306° West 469 540 38,000 49 Climbing Albuquerque Center
Sun 06:51:40 PM 33.3714 -104.8142 310° West 451 519 38,000  Level Albuquerque Center
Sun 06:52:41 PM 33.4547 -104.9378 309° West 444 511 38,000  Level Albuquerque Center
Sun 06:53:43 PM 33.5325 -105.0525 309° West 443 510 38,000  Level Albuquerque Center
Sun 06:54:44 PM 33.6092 -105.1672 309° West 442 509 38,000  Level Albuquerque Center
Sun 06:55:45 PM 33.6514 -105.3178 289° West 442 509 38,000  Level Albuquerque Center
Sun 06:56:47 PM 33.6900 -105.4569 288° West 439 505 38,000  Level Albuquerque Center
Sun 06:57:48 PM 33.7292 -105.5911 289° West 435 501 38,000  Level Albuquerque Center
Sun 06:58:50 PM 33.7672 -105.7281 289° West 434 499 38,000  Level Albuquerque Center
Sun 06:59:51 PM 33.8072 -105.8681 289° West 435 501 38,000  Level Albuquerque Center
Sun 07:00:52 PM 33.8436 -106.0028 288° West 435 501 38,000 -49 Level Albuquerque Center
Sun 07:01:54 PM 33.8825 -106.1417 289° West 436 502 37,900  Descending Albuquerque Center
Sun 07:02:55 PM 33.9186 -106.2739 288° West 434 499 38,000 49 Climbing Albuquerque Center
Sun 07:03:57 PM 33.9639 -106.4375 288° West 429 494 38,000  Level Albuquerque Center
Sun 07:04:58 PM 34.0017 -106.5783 288° West 433 498 38,000  Level Albuquerque Center
Sun 07:05:59 PM 34.0394 -106.7189 288° West 437 503 38,000  Level Albuquerque Center
Sun 07:07:01 PM 34.0747 -106.8525 288° West 433 498 38,000  Level Albuquerque Center
Sun 07:08:02 PM 34.1122 -106.9889 288° West 429 494 38,000  Level Albuquerque Center
Sun 07:09:04 PM 34.1497 -107.1289 288° West 433 498 38,000  Level Albuquerque Center
Sun 07:10:05 PM 34.1858 -107.2672 288° West 434 499 38,000  Level Albuquerque Center
Sun 07:11:06 PM 34.2239 -107.4047 289° West 432 497 38,000  Level Albuquerque Center
Sun 07:12:08 PM 34.2933 -107.5208 306° West 430 495 38,000  Level Albuquerque Center
Sun 07:13:09 PM 34.3656 -107.6339 308° West 425 489 38,000  Level Albuquerque Center
Sun 07:14:10 PM 34.4494 -107.7372 315° West 425 489 38,000  Level Albuquerque Center
Sun 07:15:12 PM 34.5469 -107.8625 313° West 427 491 38,000  Level Albuquerque Center
Sun 07:16:13 PM 34.6247 -107.9706 311° West 425 489 38,000  Level Albuquerque Center
Sun 07:17:15 PM 34.6972 -108.0825 308° West 422 486 38,000  Level Albuquerque Center
Sun 07:18:16 PM 34.7342 -108.2203 288° West 417 480 38,000  Level Albuquerque Center
Sun 07:19:17 PM 34.7581 -108.3533 282° West 420 483 38,000  Level Albuquerque Center
Sun 07:20:19 PM 34.7889 -108.5067 284° West 417 480 38,000  Level Albuquerque Center
Sun 07:21:20 PM 34.8144 -108.6364 284° West 414 476 38,000  Level Albuquerque Center
Sun 07:22:21 PM 34.8394 -108.7703 283° West 417 480 38,000  Level Albuquerque Center
Sun 07:23:23 PM 34.8689 -108.9331 282° West 429 494 38,000  Level Albuquerque Center
Sun 07:24:24 PM 34.8944 -109.0683 283° West 427 491 38,000  Level Albuquerque Center
Sun 07:25:25 PM 34.9186 -109.2064 282° West 431 496 38,000  Level Albuquerque Center
Sun 07:26:27 PM 34.9467 -109.3639 282° West 428 493 38,000  Level Albuquerque Center
Sun 07:27:28 PM 34.9725 -109.4994 283° West 428 493 38,000  Level Albuquerque Center
Sun 07:28:29 PM 35.0003 -109.6569 282° West 425 489 38,000  Level Albuquerque Center
Sun 07:29:31 PM 35.0239 -109.7906 282° West 422 486 38,000  Level Albuquerque Center
Sun 07:30:32 PM 35.0481 -109.9250 282° West 422 486 38,000  Level Albuquerque Center
Sun 07:31:33 PM 35.0758 -110.0822 282° West 422 486 38,000  Level Albuquerque Center
Sun 07:32:35 PM 35.0978 -110.2156 281° West 422 486 38,000  Level Albuquerque Center
Sun 07:33:36 PM 35.1231 -110.3675 282° West 413 475 38,000  Level Albuquerque Center
Sun 07:34:38 PM 35.1442 -110.4994 281° West 412 474 38,000  Level Albuquerque Center
Sun 07:35:39 PM 35.1667 -110.6311 282° West 412 474 38,000  Level Albuquerque Center
Sun 07:36:40 PM 35.1928 -110.7858 282° West 414 476 38,000 -49 Level Albuquerque Center
Sun 07:37:41 PM 35.2158 -110.9194 282° West 418 481 37,900 -488 Descending Albuquerque Center
Sun 07:38:43 PM 35.2375 -111.0533 281° West 418 481 37,000 -976 Descending Albuquerque Center
Sun 07:39:44 PM 35.2642 -111.2119 282° West 431 496 35,900 -984 Descending Albuquerque Center
Sun 07:40:45 PM 35.2875 -111.3542 281° West 431 496 35,000 -984 Descending Albuquerque Center
Sun 07:41:46 PM 35.3128 -111.5081 281° West 432 497 33,900 -976 Descending Albuquerque Center
Sun 07:42:48 PM 35.3364 -111.6567 281° West 442 509 33,000 -1,024 Descending Albuquerque Center
Sun 07:43:49 PM 35.3614 -111.8103 281° West 456 525 31,800 -1,475 Descending Albuquerque Center
Sun 07:44:50 PM 35.3853 -111.9633 281° West 460 529 30,000 -878 Descending Albuquerque Center
Sun 07:45:52 PM 35.4086 -112.1119 281° West 453 521 30,000  Level Albuquerque Center
Sun 07:46:30 PM 35.4228 -112.2003 281° West 447 514 30,000  Level Los Angeles Center
Sun 07:47:32 PM 35.4508 -112.3819 281° West 453 521 30,000  Level Los Angeles Center
Sun 07:48:34 PM 35.4747 -112.5319 281° West 454 522 30,000  Level Los Angeles Center
Sun 07:49:36 PM 35.4978 -112.6850 281° West 456 525 30,000  Level Los Angeles Center
Sun 07:50:38 PM 35.5206 -112.8386 280° West 456 525 30,000  Level Los Angeles Center
Sun 07:51:40 PM 35.5433 -112.9883 281° West 451 519 30,000 -48 Level Los Angeles Center
Sun 07:52:42 PM 35.5694 -113.1700 280° West 449 517 29,900 -1,104 Descending Los Angeles Center
Sun 07:53:45 PM 35.5903 -113.3069 281° West 447 514 27,700 -2,160 Descending Los Angeles Center
Sun 07:54:47 PM 35.6108 -113.4514 280° West 438 504 25,400 -2,371 Descending Los Angeles Center
Sun 07:55:49 PM 35.6350 -113.6194 280° West 422 486 22,800 -2,274 Descending Los Angeles Center
Sun 07:56:51 PM 35.6536 -113.7553 280° West 411 473 20,700 -2,032 Descending Los Angeles Center
Sun 07:57:53 PM 35.6731 -113.8872 280° West 399 459 18,600 -1,935 Descending Los Angeles Center
Sun 07:58:55 PM 35.6897 -114.0139 279° West 381 438 16,700 -1,887 Descending Los Angeles Center
Sun 07:59:57 PM 35.7067 -114.1350 280° West 369 425 14,700 -1,984 Descending Los Angeles Center
Sun 08:00:59 PM 35.7242 -114.2703 279° West 355 409 12,600 -1,515 Descending Los Angeles Center
Sun 08:01:40 PM 35.7381 -114.3536 282° West 330 380 12,100 -500 Descending Los Angeles Center
Sun 08:02:11 PM 35.7594 -114.3917 305° West 305 351 12,000  Descending Los Angeles Center
Sun 08:03:04 PM 35.8175 -114.4200 338° Northwest 299 344 12,100 -541 Climbing Los Angeles Center
Sun 08:04:13 PM 35.9186 -114.4547 344° North 293 337 10,900 -1,122 Descending Los Angeles Center
Sun 08:05:07 PM 35.9750 -114.4594 356° North 291 335 9,800 -1,487 Descending Los Angeles Center
Sun 08:06:10 PM 36.0733 -114.4761 352° North 295 339 8,000 -864 Descending Los Angeles Center
Sun 08:07:12 PM 36.1469 -114.4908 351° North 272 313 8,000  Level Los Angeles Center
Sun 08:08:16 PM 36.2108 -114.5422 327° Northwest 255 293 8,000  Level Los Angeles Center
Sun 08:09:11 PM 36.2444 -114.6056 303° West 258 297 8,000 -492 Level Los Angeles Center
Sun 08:10:18 PM 36.2486 -114.7061 273° West 257 296 7,000 -496 Descending Los Angeles Center
Sun 08:11:12 PM 36.2436 -114.7875 266° West 258 297 7,000 -145 Level Los Angeles Center
Sun 08:12:22 PM 36.2372 -114.8717 265° West 232 267 6,700 -451 Descending Los Angeles Center
Sun 08:13:25 PM 36.2422 -114.9433 275° West 211 243 6,000 -288 Descending Los Angeles Center
Sun 08:14:27 PM 36.2503 -115.0119 278° West 204 235 6,100 -256 Climbing Los Angeles Center
Sun 08:15:22 PM 36.2461 -115.0853 266° West 203 234 5,500 -678 Descending Los Angeles Center
Sun 08:16:22 PM 36.1997 -115.1008 195° South 188 216 4,800 -991 Descending Los Angeles Center
Sun 08:17:17 PM 36.1575 -115.1253 205° Southwest 188 216 3,600 -1,145 Descending Los Angeles Center
Sun 08:18:12 PM 36.1189 -115.1461 204° Southwest 166 191 2,700 -982 Descending Los Angeles Center

Login

Don't have an account? Register now (free) for customized features, flight alerts, and more!